Cranberry, North Carolina
Current Conditions -  °F | °C
As of 8:15 AM on Wednesday 22 Oct 2014 (Local Time) from KTNB Reporting Station
Clear Clear  
Wind Chill:   Ceiling: Unl
Heat Index:   Visibility: 10mi
Dew Point: -1°   Wind: 14mph
Humidity: 70%   Direction: 320°NW
Pressure: 30.07"   Gusts: 22mph
Location:  36.1731°N, 81.9572°W
Report Text: KTNB 221215Z AUTO 32012G19KT 10SM CLR 04/M01 A3007 RMK AO2 T00401010
Loading
Personal Weather Stations






























Interactive Weather Map
Tropical Storm Tracking
New forecast layout! Learn more

10-Day Weather Forecast

Advertisements
Track Severe Weather on mobile